Time,TemperatureF,DewpointF,PressureIn,WindDirection,WindDirectionDegrees,WindSpeedMPH,WindSpeedGustMPH,Humidity,HourlyPrecipIn,Conditions,Clouds,dailyrainin,SoftwareType,DateUTC
2017-12-12 00:12:00,31.1,11.8,-100.00,North,-9999,-999.9,-999.0,44,-99.99,,,-99.99,,2017-12-12 04:12:00,
2017-12-12 00:17:00,31.1,11.8,-100.00,North,-9999,-999.9,-999.0,44,-99.99,,,-99.99,,2017-12-12 04:17:00,
2017-12-12 00:27:00,31.1,11.8,-100.00,North,-9999,-999.9,-999.0,44,-99.99,,,-99.99,,2017-12-12 04:27:00,
2017-12-12 00:38:00,30.9,11.6,-100.00,North,-9999,-999.9,-999.0,44,-99.99,,,-99.99,,2017-12-12 04:38:00,
2017-12-12 00:43:00,30.7,11.4,-100.00,North,-9999,-999.9,-999.0,44,-99.99,,,-99.99,,2017-12-12 04:43:00,
2017-12-12 01:17:00,30.2,11.9,-100.00,North,-9999,-999.9,-999.0,46,-99.99,,,-99.99,,2017-12-12 05:17:00,
2017-12-12 01:22:00,30.2,11.9,-100.00,North,-9999,-999.9,-999.0,46,-99.99,,,-99.99,,2017-12-12 05:22:00,
2017-12-12 01:32:00,30.0,11.8,-100.00,North,-9999,-999.9,-999.0,46,-99.99,,,-99.99,,2017-12-12 05:32:00,
2017-12-12 01:37:00,30.0,11.8,-100.00,North,-9999,-999.9,-999.0,46,-99.99,,,-99.99,,2017-12-12 05:37:00,
2017-12-12 01:48:00,29.6,11.4,-100.00,North,-9999,-999.9,-999.0,46,-99.99,,,-99.99,,2017-12-12 05:48:00,
2017-12-12 01:53:00,29.6,11.4,-100.00,North,-9999,-999.9,-999.0,46,-99.99,,,-99.99,,2017-12-12 05:53:00,
2017-12-12 02:17:00,29.4,11.3,-100.00,North,-9999,-999.9,-999.0,46,-99.99,,,-99.99,,2017-12-12 06:17:00,
2017-12-12 02:22:00,29.3,11.1,-100.00,North,-9999,-999.9,-999.0,46,-99.99,,,-99.99,,2017-12-12 06:22:00,
2017-12-12 02:27:00,29.3,11.1,-100.00,North,-9999,-999.9,-999.0,46,-99.99,,,-99.99,,2017-12-12 06:27:00,
2017-12-12 02:44:00,29.3,11.1,-100.00,North,-9999,-999.9,-999.0,46,-99.99,,,-99.99,,2017-12-12 06:44:00,
2017-12-12 02:49:00,29.3,11.1,-100.00,North,-9999,-999.9,-999.0,46,-99.99,,,-99.99,,2017-12-12 06:49:00,
2017-12-12 02:54:00,29.3,11.1,-100.00,North,-9999,-999.9,-999.0,46,-99.99,,,-99.99,,2017-12-12 06:54:00,
2017-12-12 03:12:00,29.3,10.1,-100.00,North,-9999,-999.9,-999.0,44,-99.99,,,-99.99,,2017-12-12 07:12:00,
2017-12-12 03:17:00,29.3,10.1,-100.00,North,-9999,-999.9,-999.0,44,-99.99,,,-99.99,,2017-12-12 07:17:00,
2017-12-12 03:27:00,29.1,10.0,-100.00,North,-9999,-999.9,-999.0,44,-99.99,,,-99.99,,2017-12-12 07:27:00,
2017-12-12 03:38:00,29.1,10.0,-100.00,North,-9999,-999.9,-999.0,44,-99.99,,,-99.99,,2017-12-12 07:38:00,
2017-12-12 03:48:00,29.1,10.0,-100.00,North,-9999,-999.9,-999.0,44,-99.99,,,-99.99,,2017-12-12 07:48:00,
2017-12-12 03:53:00,28.7,9.6,-100.00,North,-9999,-999.9,-999.0,44,-99.99,,,-99.99,,2017-12-12 07:53:00,
2017-12-12 03:58:00,28.7,9.6,-100.00,North,-9999,-999.9,-999.0,44,-99.99,,,-99.99,,2017-12-12 07:58:00,
2017-12-12 04:12:00,28.4,9.8,-100.00,North,-9999,-999.9,-999.0,45,-99.99,,,-99.99,,2017-12-12 08:12:00,
2017-12-12 04:17:00,28.4,9.8,-100.00,North,-9999,-999.9,-999.0,45,-99.99,,,-99.99,,2017-12-12 08:17:00,
2017-12-12 04:22:00,28.4,9.8,-100.00,North,-9999,-999.9,-999.0,45,-99.99,,,-99.99,,2017-12-12 08:22:00,
2017-12-12 04:27:00,28.2,9.6,-100.00,North,-9999,-999.9,-999.0,45,-99.99,,,-99.99,,2017-12-12 08:27:00,
2017-12-12 04:43:00,27.8,9.8,-100.00,North,-9999,-999.9,-999.0,46,-99.99,,,-99.99,,2017-12-12 08:43:00,
2017-12-12 04:48:00,27.8,9.8,-100.00,North,-9999,-999.9,-999.0,46,-99.99,,,-99.99,,2017-12-12 08:48:00,
2017-12-12 04:53:00,27.6,9.6,-100.00,North,-9999,-999.9,-999.0,46,-99.99,,,-99.99,,2017-12-12 08:53:00,
2017-12-12 04:59:00,27.5,9.5,-100.00,North,-9999,-999.9,-999.0,46,-99.99,,,-99.99,,2017-12-12 08:59:00,
2017-12-12 05:12:00,27.3,9.8,-100.00,North,-9999,-999.9,-999.0,47,-99.99,,,-99.99,,2017-12-12 09:12:00,
2017-12-12 05:17:00,27.3,9.8,-100.00,North,-9999,-999.9,-999.0,47,-99.99,,,-99.99,,2017-12-12 09:17:00,
2017-12-12 05:22:00,27.3,9.8,-100.00,North,-9999,-999.9,-999.0,47,-99.99,,,-99.99,,2017-12-12 09:22:00,
2017-12-12 05:38:00,27.3,9.8,-100.00,North,-9999,-999.9,-999.0,47,-99.99,,,-99.99,,2017-12-12 09:38:00,
2017-12-12 05:49:00,27.3,10.2,-100.00,North,-9999,-999.9,-999.0,48,-99.99,,,-99.99,,2017-12-12 09:49:00,
2017-12-12 05:54:00,27.3,10.7,-100.00,North,-9999,-999.9,-999.0,49,-99.99,,,-99.99,,2017-12-12 09:54:00,
2017-12-12 05:59:00,27.3,10.7,-100.00,North,-9999,-999.9,-999.0,49,-99.99,,,-99.99,,2017-12-12 09:59:00,
2017-12-12 06:12:00,26.7,8.3,-100.00,North,-9999,-999.9,-999.0,45,-99.99,,,-99.99,,2017-12-12 10:12:00,
2017-12-12 06:17:00,26.7,7.8,-100.00,North,-9999,-999.9,-999.0,44,-99.99,,,-99.99,,2017-12-12 10:17:00,
2017-12-12 06:22:00,26.6,7.7,-100.00,North,-9999,-999.9,-999.0,44,-99.99,,,-99.99,,2017-12-12 10:22:00,
2017-12-12 06:27:00,26.7,7.8,-100.00,North,-9999,-999.9,-999.0,44,-99.99,,,-99.99,,2017-12-12 10:27:00,
2017-12-12 06:35:00,26.9,8.0,-100.00,North,-9999,-999.9,-999.0,44,-99.99,,,-99.99,,2017-12-12 10:35:00,
2017-12-12 06:45:00,26.9,8.5,-100.00,North,-9999,-999.9,-999.0,45,-99.99,,,-99.99,,2017-12-12 10:45:00,
2017-12-12 06:50:00,26.7,8.3,-100.00,North,-9999,-999.9,-999.0,45,-99.99,,,-99.99,,2017-12-12 10:50:00,
2017-12-12 06:56:00,26.6,8.1,-100.00,North,-9999,-999.9,-999.0,45,-99.99,,,-99.99,,2017-12-12 10:56:00,
2017-12-12 07:12:00,26.6,7.7,-100.00,North,-9999,-999.9,-999.0,44,-99.99,,,-99.99,,2017-12-12 11:12:00,
2017-12-12 07:22:00,26.4,8.0,-100.00,North,-9999,-999.9,-999.0,45,-99.99,,,-99.99,,2017-12-12 11:22:00,
2017-12-12 07:27:00,26.2,7.8,-100.00,North,-9999,-999.9,-999.0,45,-99.99,,,-99.99,,2017-12-12 11:27:00,
2017-12-12 07:32:00,26.4,8.0,-100.00,North,-9999,-999.9,-999.0,45,-99.99,,,-99.99,,2017-12-12 11:32:00,
2017-12-12 07:43:00,26.6,8.1,-100.00,North,-9999,-999.9,-999.0,45,-99.99,,,-99.99,,2017-12-12 11:43:00,
2017-12-12 07:48:00,26.7,8.3,-100.00,North,-9999,-999.9,-999.0,45,-99.99,,,-99.99,,2017-12-12 11:48:00,
2017-12-12 07:53:00,26.9,8.5,-100.00,North,-9999,-999.9,-999.0,45,-99.99,,,-99.99,,2017-12-12 11:53:00,
2017-12-12 07:58:00,26.9,8.0,-100.00,North,-9999,-999.9,-999.0,44,-99.99,,,-99.99,,2017-12-12 11:58:00,
2017-12-12 08:12:00,27.5,8.5,-100.00,North,-9999,-999.9,-999.0,44,-99.99,,,-99.99,,2017-12-12 12:12:00,
2017-12-12 08:17:00,27.5,9.0,-100.00,North,-9999,-999.9,-999.0,45,-99.99,,,-99.99,,2017-12-12 12:17:00,
2017-12-12 08:27:00,27.5,9.0,-100.00,North,-9999,-999.9,-999.0,45,-99.99,,,-99.99,,2017-12-12 12:27:00,
2017-12-12 08:38:00,27.5,9.5,-100.00,North,-9999,-999.9,-999.0,46,-99.99,,,-99.99,,2017-12-12 12:38:00,
2017-12-12 08:43:00,27.5,9.9,-100.00,North,-9999,-999.9,-999.0,47,-99.99,,,-99.99,,2017-12-12 12:43:00,
2017-12-12 08:53:00,26.9,9.0,-100.00,North,-9999,-999.9,-999.0,46,-99.99,,,-99.99,,2017-12-12 12:53:00,
2017-12-12 08:58:00,26.6,9.1,-100.00,North,-9999,-999.9,-999.0,47,-99.99,,,-99.99,,2017-12-12 12:58:00,
2017-12-12 09:12:00,27.3,9.3,-100.00,North,-9999,-999.9,-999.0,46,-99.99,,,-99.99,,2017-12-12 13:12:00,
2017-12-12 09:17:00,27.8,9.8,-100.00,North,-9999,-999.9,-999.0,46,-99.99,,,-99.99,,2017-12-12 13:17:00,
2017-12-12 09:22:00,28.4,9.8,-100.00,North,-9999,-999.9,-999.0,45,-99.99,,,-99.99,,2017-12-12 13:22:00,
2017-12-12 09:27:00,28.7,10.1,-100.00,North,-9999,-999.9,-999.0,45,-99.99,,,-99.99,,2017-12-12 13:27:00,
2017-12-12 09:38:00,28.9,9.8,-100.00,North,-9999,-999.9,-999.0,44,-99.99,,,-99.99,,2017-12-12 13:38:00,
2017-12-12 09:43:00,28.9,9.8,-100.00,North,-9999,-999.9,-999.0,44,-99.99,,,-99.99,,2017-12-12 13:43:00,
2017-12-12 09:48:00,29.3,10.1,-100.00,North,-9999,-999.9,-999.0,44,-99.99,,,-99.99,,2017-12-12 13:48:00,
2017-12-12 09:53:00,30.0,10.3,-100.00,North,-9999,-999.9,-999.0,43,-99.99,,,-99.99,,2017-12-12 13:53:00,
2017-12-12 09:58:00,30.7,10.9,-100.00,North,-9999,-999.9,-999.0,43,-99.99,,,-99.99,,2017-12-12 13:58:00,
2017-12-12 10:12:00,31.6,11.7,-100.00,North,-9999,-999.9,-999.0,43,-99.99,,,-99.99,,2017-12-12 14:12:00,
2017-12-12 10:17:00,31.8,11.9,-100.00,North,-9999,-999.9,-999.0,43,-99.99,,,-99.99,,2017-12-12 14:17:00,
2017-12-12 10:22:00,31.4,11.6,-100.00,North,-9999,-999.9,-999.0,43,-99.99,,,-99.99,,2017-12-12 14:22:00,
2017-12-12 10:27:00,32.0,12.0,-100.00,North,-9999,-999.9,-999.0,43,-99.99,,,-99.99,,2017-12-12 14:27:00,
2017-12-12 10:32:00,32.1,12.2,-100.00,North,-9999,-999.9,-999.0,43,-99.99,,,-99.99,,2017-12-12 14:32:00,
2017-12-12 10:37:00,31.8,11.9,-100.00,North,-9999,-999.9,-999.0,43,-99.99,,,-99.99,,2017-12-12 14:37:00,
2017-12-12 10:42:00,31.2,11.4,-100.00,North,-9999,-999.9,-999.0,43,-99.99,,,-99.99,,2017-12-12 14:42:00,
2017-12-12 10:48:00,31.6,11.7,-100.00,North,-9999,-999.9,-999.0,43,-99.99,,,-99.99,,2017-12-12 14:48:00,
2017-12-12 10:58:00,32.5,12.6,-100.00,North,-9999,-999.9,-999.0,43,-99.99,,,-99.99,,2017-12-12 14:58:00,
2017-12-12 11:12:00,32.9,12.9,-100.00,North,-9999,-999.9,-999.0,43,-99.99,,,-99.99,,2017-12-12 15:12:00,
2017-12-12 11:22:00,33.4,13.4,-100.00,North,-9999,-999.9,-999.0,43,-99.99,,,-99.99,,2017-12-12 15:22:00,
2017-12-12 11:32:00,33.6,13.5,-100.00,North,-9999,-999.9,-999.0,43,-99.99,,,-99.99,,2017-12-12 15:32:00,
2017-12-12 11:37:00,33.8,13.7,-100.00,North,-9999,-999.9,-999.0,43,-99.99,,,-99.99,,2017-12-12 15:37:00,
2017-12-12 11:53:00,35.7,15.0,-100.00,North,-9999,-999.9,-999.0,42,-99.99,,,-99.99,,2017-12-12 15:53:00,
2017-12-12 11:58:00,35.4,14.6,-100.00,North,-9999,-999.9,-999.0,42,-99.99,,,-99.99,,2017-12-12 15:58:00,
2017-12-12 12:12:00,35.2,15.0,-100.00,North,-9999,-999.9,-999.0,43,-99.99,,,-99.99,,2017-12-12 16:12:00,
2017-12-12 12:17:00,34.8,14.7,-100.00,North,-9999,-999.9,-999.0,43,-99.99,,,-99.99,,2017-12-12 16:17:00,
2017-12-12 12:22:00,34.8,14.7,-100.00,North,-9999,-999.9,-999.0,43,-99.99,,,-99.99,,2017-12-12 16:22:00,
2017-12-12 12:27:00,34.3,14.2,-100.00,North,-9999,-999.9,-999.0,43,-99.99,,,-99.99,,2017-12-12 16:27:00,
2017-12-12 12:32:00,33.9,14.4,-100.00,North,-9999,-999.9,-999.0,44,-99.99,,,-99.99,,2017-12-12 16:32:00,
2017-12-12 12:42:00,33.8,13.7,-100.00,North,-9999,-999.9,-999.0,43,-99.99,,,-99.99,,2017-12-12 16:42:00,
2017-12-12 12:53:00,33.8,12.6,-100.00,North,-9999,-999.9,-999.0,41,-99.99,,,-99.99,,2017-12-12 16:53:00,
2017-12-12 12:58:00,33.8,12.6,-100.00,North,-9999,-999.9,-999.0,41,-99.99,,,-99.99,,2017-12-12 16:58:00,
2017-12-12 13:12:00,33.8,12.6,-100.00,North,-9999,-999.9,-999.0,41,-99.99,,,-99.99,,2017-12-12 17:12:00,
2017-12-12 13:17:00,33.9,12.8,-100.00,North,-9999,-999.9,-999.0,41,-99.99,,,-99.99,,2017-12-12 17:17:00,
2017-12-12 13:22:00,33.8,12.6,-100.00,North,-9999,-999.9,-999.0,41,-99.99,,,-99.99,,2017-12-12 17:22:00,
2017-12-12 13:27:00,33.6,12.5,-100.00,North,-9999,-999.9,-999.0,41,-99.99,,,-99.99,,2017-12-12 17:27:00,
2017-12-12 13:38:00,33.4,12.3,-100.00,North,-9999,-999.9,-999.0,41,-99.99,,,-99.99,,2017-12-12 17:38:00,
2017-12-12 13:54:00,33.8,12.6,-100.00,North,-9999,-999.9,-999.0,41,-99.99,,,-99.99,,2017-12-12 17:54:00,
2017-12-12 14:12:00,33.8,12.6,-100.00,North,-9999,-999.9,-999.0,41,-99.99,,,-99.99,,2017-12-12 18:12:00,
2017-12-12 14:17:00,33.6,12.5,-100.00,North,-9999,-999.9,-999.0,41,-99.99,,,-99.99,,2017-12-12 18:17:00,
2017-12-12 14:27:00,33.4,12.8,-100.00,North,-9999,-999.9,-999.0,42,-99.99,,,-99.99,,2017-12-12 18:27:00,
2017-12-12 14:32:00,33.4,12.8,-100.00,North,-9999,-999.9,-999.0,42,-99.99,,,-99.99,,2017-12-12 18:32:00,
2017-12-12 14:37:00,33.6,14.6,-100.00,North,-9999,-999.9,-999.0,45,-99.99,,,-99.99,,2017-12-12 18:37:00,
2017-12-12 14:43:00,33.8,13.2,-100.00,North,-9999,-999.9,-999.0,42,-99.99,,,-99.99,,2017-12-12 18:43:00,
2017-12-12 14:48:00,33.8,13.2,-100.00,North,-9999,-999.9,-999.0,42,-99.99,,,-99.99,,2017-12-12 18:48:00,
2017-12-12 14:53:00,33.8,13.2,-100.00,North,-9999,-999.9,-999.0,42,-99.99,,,-99.99,,2017-12-12 18:53:00,
2017-12-12 14:58:00,33.8,13.2,-100.00,North,-9999,-999.9,-999.0,42,-99.99,,,-99.99,,2017-12-12 18:58:00,
2017-12-12 15:12:00,33.9,13.3,-100.00,North,-9999,-999.9,-999.0,42,-99.99,,,-99.99,,2017-12-12 19:12:00,